sensor_id;sensor_type;location;lat;lon;timestamp;pressure;altitude;pressure_sealevel;temperature;humidity
68594;BME280;55563;52.416;13.548;2023-11-21T00:01:36;100415.78;;;9.48;100.00
68594;BME280;55563;52.416;13.548;2023-11-21T00:03:36;100427.59;;;9.50;100.00
68594;BME280;55563;52.416;13.548;2023-11-21T00:05:37;100434.41;;;9.46;100.00
68594;BME280;55563;52.416;13.548;2023-11-21T00:07:38;100433.28;;;9.32;100.00
68594;BME280;55563;52.416;13.548;2023-11-21T00:09:38;100441.06;;;9.17;100.00
68594;BME280;55563;52.416;13.548;2023-11-21T00:11:39;100442.47;;;8.93;100.00
68594;BME280;55563;52.416;13.548;2023-11-21T00:13:40;100441.69;;;8.92;100.00
68594;BME280;55563;52.416;13.548;2023-11-21T00:15:40;100443.50;;;8.87;100.00
68594;BME280;55563;52.416;13.548;2023-11-21T00:17:41;100454.91;;;8.70;100.00
68594;BME280;55563;52.416;13.548;2023-11-21T00:19:43;100451.72;;;8.68;100.00
68594;BME280;55563;52.416;13.548;2023-11-21T00:21:43;100453.03;;;8.66;100.00
68594;BME280;55563;52.416;13.548;2023-11-21T00:23:45;100452.91;;;8.51;100.00
68594;BME280;55563;52.416;13.548;2023-11-21T00:25:45;100453.63;;;8.46;100.00
68594;BME280;55563;52.416;13.548;2023-11-21T00:27:46;100457.81;;;8.42;100.00
68594;BME280;55563;52.416;13.548;2023-11-21T00:29:47;100464.06;;;8.41;100.00
68594;BME280;55563;52.416;13.548;2023-11-21T00:31:47;100462.38;;;8.30;100.00
68594;BME280;55563;52.416;13.548;2023-11-21T00:33:48;100471.41;;;8.39;100.00
68594;BME280;55563;52.416;13.548;2023-11-21T00:35:49;100469.69;;;8.28;100.00
68594;BME280;55563;52.416;13.548;2023-11-21T00:37:50;100472.00;;;8.24;100.00
68594;BME280;55563;52.416;13.548;2023-11-21T00:39:50;100461.81;;;8.28;100.00
68594;BME280;55563;52.416;13.548;2023-11-21T00:41:51;100470.41;;;8.23;100.00
68594;BME280;55563;52.416;13.548;2023-11-21T00:43:53;100471.44;;;8.22;100.00
68594;BME280;55563;52.416;13.548;2023-11-21T00:45:54;100477.03;;;8.04;100.00
68594;BME280;55563;52.416;13.548;2023-11-21T00:47:55;100479.63;;;8.04;100.00
68594;BME280;55563;52.416;13.548;2023-11-21T00:49:56;100478.84;;;8.04;100.00
68594;BME280;55563;52.416;13.548;2023-11-21T00:51:57;100482.94;;;7.95;100.00
68594;BME280;55563;52.416;13.548;2023-11-21T00:54:00;100485.28;;;7.96;100.00
68594;BME280;55563;52.416;13.548;2023-11-21T00:56:01;100488.09;;;7.89;100.00
68594;BME280;55563;52.416;13.548;2023-11-21T00:58:03;100495.28;;;7.99;100.00
68594;BME280;55563;52.416;13.548;2023-11-21T01:00:05;100492.66;;;7.99;100.00
68594;BME280;55563;52.416;13.548;2023-11-21T01:02:14;100495.06;;;8.01;100.00
68594;BME280;55563;52.416;13.548;2023-11-21T01:04:15;100498.88;;;7.93;100.00
68594;BME280;55563;52.416;13.548;2023-11-21T01:06:15;100494.88;;;7.85;100.00
68594;BME280;55563;52.416;13.548;2023-11-21T01:08:16;100505.88;;;7.87;100.00
68594;BME280;55563;52.416;13.548;2023-11-21T01:10:17;100503.03;;;7.72;100.00
68594;BME280;55563;52.416;13.548;2023-11-21T01:12:18;100507.84;;;7.59;100.00
68594;BME280;55563;52.416;13.548;2023-11-21T01:14:19;100510.72;;;7.57;100.00
68594;BME280;55563;52.416;13.548;2023-11-21T01:16:20;100512.28;;;7.58;100.00
68594;BME280;55563;52.416;13.548;2023-11-21T01:18:20;100512.91;;;7.65;100.00
68594;BME280;55563;52.416;13.548;2023-11-21T01:20:21;100516.97;;;7.56;100.00
68594;BME280;55563;52.416;13.548;2023-11-21T01:22:22;100524.19;;;7.49;100.00
68594;BME280;55563;52.416;13.548;2023-11-21T01:24:26;100512.03;;;7.38;100.00
68594;BME280;55563;52.416;13.548;2023-11-21T01:26:26;100524.44;;;7.48;100.00
68594;BME280;55563;52.416;13.548;2023-11-21T01:28:27;100523.16;;;7.50;100.00
68594;BME280;55563;52.416;13.548;2023-11-21T01:30:28;100515.97;;;7.40;100.00
68594;BME280;55563;52.416;13.548;2023-11-21T01:32:29;100520.31;;;7.35;100.00
68594;BME280;55563;52.416;13.548;2023-11-21T01:34:30;100519.59;;;7.39;100.00
68594;BME280;55563;52.416;13.548;2023-11-21T01:36:32;100524.69;;;7.46;100.00
68594;BME280;55563;52.416;13.548;2023-11-21T01:38:33;100530.22;;;7.50;100.00
68594;BME280;55563;52.416;13.548;2023-11-21T01:41:52;100523.00;;;7.40;100.00
68594;BME280;55563;52.416;13.548;2023-11-21T01:43:53;100529.53;;;7.21;100.00
68594;BME280;55563;52.416;13.548;2023-11-21T01:45:54;100537.94;;;7.23;100.00
68594;BME280;55563;52.416;13.548;2023-11-21T01:47:58;100535.88;;;7.08;100.00
68594;BME280;55563;52.416;13.548;2023-11-21T01:50:00;100533.47;;;7.07;100.00
68594;BME280;55563;52.416;13.548;2023-11-21T01:52:02;100536.41;;;6.93;100.00
68594;BME280;55563;52.416;13.548;2023-11-21T01:54:04;100540.44;;;7.01;100.00
68594;BME280;55563;52.416;13.548;2023-11-21T01:56:07;100541.16;;;6.96;100.00
68594;BME280;55563;52.416;13.548;2023-11-21T01:58:09;100548.78;;;6.98;100.00
68594;BME280;55563;52.416;13.548;2023-11-21T02:00:11;100538.94;;;6.88;100.00
68594;BME280;55563;52.416;13.548;2023-11-21T02:02:19;100544.91;;;6.72;100.00
68594;BME280;55563;52.416;13.548;2023-11-21T02:04:20;100557.38;;;6.82;100.00
68594;BME280;55563;52.416;13.548;2023-11-21T02:06:21;100553.19;;;6.81;100.00
68594;BME280;55563;52.416;13.548;2023-11-21T02:08:22;100556.41;;;6.71;100.00
68594;BME280;55563;52.416;13.548;2023-11-21T02:10:23;100552.66;;;6.67;100.00
68594;BME280;55563;52.416;13.548;2023-11-21T02:12:24;100561.97;;;6.75;100.00
68594;BME280;55563;52.416;13.548;2023-11-21T02:14:27;100558.31;;;6.76;100.00
68594;BME280;55563;52.416;13.548;2023-11-21T02:16:29;100547.97;;;6.81;100.00
68594;BME280;55563;52.416;13.548;2023-11-21T02:18:31;100559.09;;;6.76;100.00
68594;BME280;55563;52.416;13.548;2023-11-21T02:20:32;100565.00;;;6.55;100.00
68594;BME280;55563;52.416;13.548;2023-11-21T02:22:37;100566.06;;;6.71;100.00
68594;BME280;55563;52.416;13.548;2023-11-21T02:24:41;100577.66;;;6.63;100.00
68594;BME280;55563;52.416;13.548;2023-11-21T02:26:42;100569.03;;;6.63;100.00
68594;BME280;55563;52.416;13.548;2023-11-21T02:28:43;100576.78;;;6.57;100.00
68594;BME280;55563;52.416;13.548;2023-11-21T02:30:44;100574.81;;;6.36;100.00
68594;BME280;55563;52.416;13.548;2023-11-21T02:32:45;100580.16;;;6.41;100.00
68594;BME280;55563;52.416;13.548;2023-11-21T02:34:46;100581.59;;;6.49;100.00
68594;BME280;55563;52.416;13.548;2023-11-21T02:36:47;100587.19;;;6.29;100.00
68594;BME280;55563;52.416;13.548;2023-11-21T02:38:51;100584.09;;;6.44;100.00
68594;BME280;55563;52.416;13.548;2023-11-21T02:40:52;100585.69;;;6.45;100.00
68594;BME280;55563;52.416;13.548;2023-11-21T02:42:53;100580.84;;;6.37;100.00
68594;BME280;55563;52.416;13.548;2023-11-21T02:44:53;100579.84;;;6.26;100.00
68594;BME280;55563;52.416;13.548;2023-11-21T02:46:54;100590.72;;;6.35;100.00
68594;BME280;55563;52.416;13.548;2023-11-21T02:48:55;100581.88;;;6.24;100.00
68594;BME280;55563;52.416;13.548;2023-11-21T02:50:56;100595.50;;;6.26;100.00
68594;BME280;55563;52.416;13.548;2023-11-21T02:52:57;100594.94;;;6.24;100.00
68594;BME280;55563;52.416;13.548;2023-11-21T02:54:58;100605.84;;;6.21;100.00
68594;BME280;55563;52.416;13.548;2023-11-21T02:56:59;100598.91;;;6.15;100.00
68594;BME280;55563;52.416;13.548;2023-11-21T02:59:00;100598.13;;;6.14;100.00
68594;BME280;55563;52.416;13.548;2023-11-21T03:01:01;100599.28;;;6.07;100.00
68594;BME280;55563;52.416;13.548;2023-11-21T03:03:02;100596.88;;;6.17;100.00
68594;BME280;55563;52.416;13.548;2023-11-21T03:05:03;100593.25;;;6.06;100.00
68594;BME280;55563;52.416;13.548;2023-11-21T03:07:05;100595.88;;;6.06;100.00
68594;BME280;55563;52.416;13.548;2023-11-21T03:09:06;100593.72;;;6.03;100.00
68594;BME280;55563;52.416;13.548;2023-11-21T03:11:07;100593.94;;;6.02;100.00
68594;BME280;55563;52.416;13.548;2023-11-21T03:13:08;100599.06;;;5.97;100.00
68594;BME280;55563;52.416;13.548;2023-11-21T03:15:09;100601.88;;;5.95;100.00
68594;BME280;55563;52.416;13.548;2023-11-21T03:17:10;100608.69;;;5.96;100.00
68594;BME280;55563;52.416;13.548;2023-11-21T03:19:12;100601.34;;;5.93;100.00
68594;BME280;55563;52.416;13.548;2023-11-21T03:21:12;100602.78;;;6.01;100.00
68594;BME280;55563;52.416;13.548;2023-11-21T03:23:13;100602.94;;;5.94;100.00
68594;BME280;55563;52.416;13.548;2023-11-21T03:25:15;100606.66;;;5.98;100.00
68594;BME280;55563;52.416;13.548;2023-11-21T03:27:24;100607.25;;;5.89;100.00
68594;BME280;55563;52.416;13.548;2023-11-21T03:29:25;100616.09;;;5.88;100.00
68594;BME280;55563;52.416;13.548;2023-11-21T03:31:26;100619.94;;;5.97;100.00
68594;BME280;55563;52.416;13.548;2023-11-21T03:33:27;100619.25;;;6.01;100.00
68594;BME280;55563;52.416;13.548;2023-11-21T03:35:28;100631.38;;;5.84;100.00
68594;BME280;55563;52.416;13.548;2023-11-21T03:37:29;100624.81;;;5.93;100.00
68594;BME280;55563;52.416;13.548;2023-11-21T03:39:29;100633.78;;;5.97;100.00
68594;BME280;55563;52.416;13.548;2023-11-21T03:41:30;100630.03;;;5.93;100.00
68594;BME280;55563;52.416;13.548;2023-11-21T03:43:31;100635.13;;;5.88;100.00
68594;BME280;55563;52.416;13.548;2023-11-21T03:45:32;100637.41;;;5.96;100.00
68594;BME280;55563;52.416;13.548;2023-11-21T03:47:33;100634.78;;;5.96;100.00
68594;BME280;55563;52.416;13.548;2023-11-21T03:49:33;100636.97;;;5.99;100.00
68594;BME280;55563;52.416;13.548;2023-11-21T03:51:34;100641.16;;;5.89;100.00
68594;BME280;55563;52.416;13.548;2023-11-21T03:53:37;100654.03;;;5.84;100.00
68594;BME280;55563;52.416;13.548;2023-11-21T03:55:37;100657.34;;;5.91;100.00
68594;BME280;55563;52.416;13.548;2023-11-21T03:57:38;100651.81;;;5.87;100.00
68594;BME280;55563;52.416;13.548;2023-11-21T03:59:40;100659.56;;;5.76;100.00
68594;BME280;55563;52.416;13.548;2023-11-21T04:01:42;100662.44;;;5.74;100.00
68594;BME280;55563;52.416;13.548;2023-11-21T04:03:42;100665.81;;;5.63;100.00
68594;BME280;55563;52.416;13.548;2023-11-21T04:05:43;100666.38;;;5.65;100.00
68594;BME280;55563;52.416;13.548;2023-11-21T04:07:43;100667.19;;;5.77;100.00
68594;BME280;55563;52.416;13.548;2023-11-21T04:09:44;100658.56;;;5.65;100.00
68594;BME280;55563;52.416;13.548;2023-11-21T04:11:45;100660.81;;;5.61;100.00
68594;BME280;55563;52.416;13.548;2023-11-21T04:13:46;100654.91;;;5.54;100.00
68594;BME280;55563;52.416;13.548;2023-11-21T04:15:47;100652.56;;;5.64;100.00
68594;BME280;55563;52.416;13.548;2023-11-21T04:17:48;100650.16;;;5.63;100.00
68594;BME280;55563;52.416;13.548;2023-11-21T04:19:48;100655.47;;;5.56;100.00
68594;BME280;55563;52.416;13.548;2023-11-21T04:21:49;100672.03;;;5.62;100.00
68594;BME280;55563;52.416;13.548;2023-11-21T04:23:50;100675.44;;;5.62;100.00
68594;BME280;55563;52.416;13.548;2023-11-21T04:25:51;100665.47;;;5.59;100.00
68594;BME280;55563;52.416;13.548;2023-11-21T04:27:52;100672.94;;;5.56;100.00
68594;BME280;55563;52.416;13.548;2023-11-21T04:29:53;100680.88;;;5.49;100.00
68594;BME280;55563;52.416;13.548;2023-11-21T04:31:54;100681.19;;;5.53;100.00
68594;BME280;55563;52.416;13.548;2023-11-21T04:33:55;100679.63;;;5.63;100.00
68594;BME280;55563;52.416;13.548;2023-11-21T04:35:55;100688.25;;;5.64;100.00
68594;BME280;55563;52.416;13.548;2023-11-21T04:37:56;100696.97;;;5.58;100.00
68594;BME280;55563;52.416;13.548;2023-11-21T04:39:57;100694.47;;;5.51;100.00
68594;BME280;55563;52.416;13.548;2023-11-21T04:41:58;100697.16;;;5.45;100.00
68594;BME280;55563;52.416;13.548;2023-11-21T04:43:59;100698.25;;;5.37;100.00
68594;BME280;55563;52.416;13.548;2023-11-21T04:46:01;100695.22;;;5.40;100.00
68594;BME280;55563;52.416;13.548;2023-11-21T04:48:02;100696.03;;;5.41;100.00
68594;BME280;55563;52.416;13.548;2023-11-21T04:50:04;100703.31;;;5.50;100.00
68594;BME280;55563;52.416;13.548;2023-11-21T04:52:05;100698.94;;;5.33;100.00
68594;BME280;55563;52.416;13.548;2023-11-21T04:54:05;100705.53;;;5.35;100.00
68594;BME280;55563;52.416;13.548;2023-11-21T04:56:06;100704.94;;;5.33;100.00
68594;BME280;55563;52.416;13.548;2023-11-21T04:58:07;100710.16;;;5.33;100.00
68594;BME280;55563;52.416;13.548;2023-11-21T05:00:10;100713.00;;;5.32;100.00
68594;BME280;55563;52.416;13.548;2023-11-21T05:02:10;100708.22;;;5.28;100.00
68594;BME280;55563;52.416;13.548;2023-11-21T05:04:12;100719.34;;;5.36;100.00
68594;BME280;55563;52.416;13.548;2023-11-21T05:06:15;100718.09;;;5.26;100.00
68594;BME280;55563;52.416;13.548;2023-11-21T05:08:15;100714.44;;;5.27;100.00
68594;BME280;55563;52.416;13.548;2023-11-21T05:10:16;100725.09;;;5.26;100.00
68594;BME280;55563;52.416;13.548;2023-11-21T05:12:17;100726.63;;;5.15;100.00
68594;BME280;55563;52.416;13.548;2023-11-21T05:14:17;100728.91;;;5.23;100.00
68594;BME280;55563;52.416;13.548;2023-11-21T05:16:19;100729.16;;;5.04;100.00
68594;BME280;55563;52.416;13.548;2023-11-21T05:18:20;100734.38;;;5.04;100.00
68594;BME280;55563;52.416;13.548;2023-11-21T05:20:21;100738.38;;;5.06;100.00
68594;BME280;55563;52.416;13.548;2023-11-21T05:22:21;100737.13;;;5.09;100.00
68594;BME280;55563;52.416;13.548;2023-11-21T05:24:22;100738.81;;;5.03;100.00
68594;BME280;55563;52.416;13.548;2023-11-21T05:26:23;100748.47;;;5.14;100.00
68594;BME280;55563;52.416;13.548;2023-11-21T05:28:24;100744.06;;;5.15;100.00
68594;BME280;55563;52.416;13.548;2023-11-21T05:30:24;100745.53;;;5.11;100.00
68594;BME280;55563;52.416;13.548;2023-11-21T05:32:25;100747.47;;;5.15;100.00
68594;BME280;55563;52.416;13.548;2023-11-21T05:34:26;100751.88;;;5.15;100.00
68594;BME280;55563;52.416;13.548;2023-11-21T05:36:26;100744.94;;;5.09;100.00
68594;BME280;55563;52.416;13.548;2023-11-21T05:38:27;100755.00;;;5.05;100.00
68594;BME280;55563;52.416;13.548;2023-11-21T05:40:28;100753.94;;;4.95;100.00
68594;BME280;55563;52.416;13.548;2023-11-21T05:42:30;100759.88;;;5.02;100.00
68594;BME280;55563;52.416;13.548;2023-11-21T05:44:31;100758.41;;;5.06;100.00
68594;BME280;55563;52.416;13.548;2023-11-21T05:46:32;100762.69;;;5.00;100.00
68594;BME280;55563;52.416;13.548;2023-11-21T05:48:33;100763.28;;;5.02;100.00
68594;BME280;55563;52.416;13.548;2023-11-21T05:50:33;100769.56;;;4.95;100.00
68594;BME280;55563;52.416;13.548;2023-11-21T05:52:34;100771.16;;;4.96;100.00
68594;BME280;55563;52.416;13.548;2023-11-21T05:54:35;100778.31;;;5.00;100.00
68594;BME280;55563;52.416;13.548;2023-11-21T05:56:36;100783.88;;;5.04;100.00
68594;BME280;55563;52.416;13.548;2023-11-21T05:58:38;100787.50;;;5.03;100.00
68594;BME280;55563;52.416;13.548;2023-11-21T06:00:38;100797.28;;;5.07;100.00
68594;BME280;55563;52.416;13.548;2023-11-21T06:02:39;100785.72;;;5.03;100.00
68594;BME280;55563;52.416;13.548;2023-11-21T06:04:40;100788.06;;;5.05;100.00
68594;BME280;55563;52.416;13.548;2023-11-21T06:06:41;100784.97;;;5.14;100.00
68594;BME280;55563;52.416;13.548;2023-11-21T06:08:42;100791.28;;;5.07;100.00
68594;BME280;55563;52.416;13.548;2023-11-21T06:10:43;100795.84;;;4.93;100.00
68594;BME280;55563;52.416;13.548;2023-11-21T06:12:45;100800.41;;;4.98;100.00
68594;BME280;55563;52.416;13.548;2023-11-21T06:14:46;100804.59;;;4.99;100.00
68594;BME280;55563;52.416;13.548;2023-11-21T06:16:46;100806.91;;;5.07;100.00
68594;BME280;55563;52.416;13.548;2023-11-21T06:18:47;100814.28;;;4.92;100.00
68594;BME280;55563;52.416;13.548;2023-11-21T06:20:48;100815.72;;;5.06;100.00
68594;BME280;55563;52.416;13.548;2023-11-21T06:22:49;100816.53;;;5.06;100.00
68594;BME280;55563;52.416;13.548;2023-11-21T06:24:50;100816.88;;;5.10;100.00
68594;BME280;55563;52.416;13.548;2023-11-21T06:26:51;100812.53;;;5.04;100.00
68594;BME280;55563;52.416;13.548;2023-11-21T06:28:52;100823.59;;;4.99;100.00
68594;BME280;55563;52.416;13.548;2023-11-21T06:30:53;100826.72;;;5.08;100.00
68594;BME280;55563;52.416;13.548;2023-11-21T06:32:54;100828.75;;;5.06;100.00
68594;BME280;55563;52.416;13.548;2023-11-21T06:34:56;100832.00;;;5.01;100.00
68594;BME280;55563;52.416;13.548;2023-11-21T06:36:56;100837.34;;;5.06;100.00
68594;BME280;55563;52.416;13.548;2023-11-21T06:38:57;100844.66;;;5.16;100.00
68594;BME280;55563;52.416;13.548;2023-11-21T06:40:58;100845.13;;;5.13;100.00
68594;BME280;55563;52.416;13.548;2023-11-21T06:42:59;100850.88;;;5.15;100.00
68594;BME280;55563;52.416;13.548;2023-11-21T06:44:59;100851.84;;;5.02;100.00
68594;BME280;55563;52.416;13.548;2023-11-21T06:47:06;100845.69;;;4.97;100.00
68594;BME280;55563;52.416;13.548;2023-11-21T06:49:06;100846.31;;;5.10;100.00
68594;BME280;55563;52.416;13.548;2023-11-21T06:51:07;100854.66;;;5.01;100.00
68594;BME280;55563;52.416;13.548;2023-11-21T06:53:08;100856.81;;;5.04;100.00
68594;BME280;55563;52.416;13.548;2023-11-21T06:55:10;100854.44;;;5.02;100.00
68594;BME280;55563;52.416;13.548;2023-11-21T06:57:11;100855.88;;;4.98;100.00
68594;BME280;55563;52.416;13.548;2023-11-21T06:59:12;100863.34;;;5.13;100.00
68594;BME280;55563;52.416;13.548;2023-11-21T07:01:13;100861.97;;;5.10;100.00
68594;BME280;55563;52.416;13.548;2023-11-21T07:03:15;100867.31;;;5.15;100.00
68594;BME280;55563;52.416;13.548;2023-11-21T07:05:16;100865.56;;;5.09;100.00
68594;BME280;55563;52.416;13.548;2023-11-21T07:07:21;100867.53;;;5.14;100.00
68594;BME280;55563;52.416;13.548;2023-11-21T07:09:21;100863.91;;;5.15;100.00
68594;BME280;55563;52.416;13.548;2023-11-21T07:11:23;100867.97;;;5.11;100.00
68594;BME280;55563;52.416;13.548;2023-11-21T07:13:24;100874.19;;;5.10;100.00
68594;BME280;55563;52.416;13.548;2023-11-21T07:15:24;100869.22;;;5.08;100.00
68594;BME280;55563;52.416;13.548;2023-11-21T07:17:26;100877.38;;;5.12;100.00
68594;BME280;55563;52.416;13.548;2023-11-21T07:19:27;100880.56;;;5.14;100.00
68594;BME280;55563;52.416;13.548;2023-11-21T07:21:27;100879.13;;;5.18;100.00
68594;BME280;55563;52.416;13.548;2023-11-21T07:23:28;100889.97;;;5.15;100.00
68594;BME280;55563;52.416;13.548;2023-11-21T07:25:29;100885.91;;;5.19;100.00
68594;BME280;55563;52.416;13.548;2023-11-21T07:27:29;100888.88;;;5.04;100.00
68594;BME280;55563;52.416;13.548;2023-11-21T07:29:30;100894.16;;;4.98;100.00
68594;BME280;55563;52.416;13.548;2023-11-21T07:31:31;100900.53;;;5.02;100.00
68594;BME280;55563;52.416;13.548;2023-11-21T07:33:34;100893.50;;;5.02;100.00
68594;BME280;55563;52.416;13.548;2023-11-21T07:35:35;100900.56;;;4.95;100.00
68594;BME280;55563;52.416;13.548;2023-11-21T07:37:36;100902.38;;;4.95;100.00
68594;BME280;55563;52.416;13.548;2023-11-21T07:39:36;100898.47;;;4.86;100.00
68594;BME280;55563;52.416;13.548;2023-11-21T07:41:37;100892.03;;;4.88;100.00
68594;BME280;55563;52.416;13.548;2023-11-21T07:43:45;100900.91;;;4.80;100.00
68594;BME280;55563;52.416;13.548;2023-11-21T07:45:46;100890.13;;;4.77;100.00
68594;BME280;55563;52.416;13.548;2023-11-21T07:47:47;100887.09;;;4.80;100.00
68594;BME280;55563;52.416;13.548;2023-11-21T07:49:48;100893.97;;;4.74;100.00
68594;BME280;55563;52.416;13.548;2023-11-21T07:51:49;100903.59;;;4.74;100.00
68594;BME280;55563;52.416;13.548;2023-11-21T07:53:49;100897.50;;;4.80;100.00
68594;BME280;55563;52.416;13.548;2023-11-21T07:55:50;100910.34;;;4.75;100.00
68594;BME280;55563;52.416;13.548;2023-11-21T07:57:51;100914.84;;;4.68;100.00
68594;BME280;55563;52.416;13.548;2023-11-21T07:59:51;100912.56;;;4.78;100.00
68594;BME280;55563;52.416;13.548;2023-11-21T08:01:54;100910.75;;;4.78;100.00
68594;BME280;55563;52.416;13.548;2023-11-21T08:03:55;100919.94;;;4.81;100.00
68594;BME280;55563;52.416;13.548;2023-11-21T08:05:59;100916.97;;;4.77;100.00
68594;BME280;55563;52.416;13.548;2023-11-21T08:08:00;100915.53;;;4.81;100.00
68594;BME280;55563;52.416;13.548;2023-11-21T08:10:01;100924.97;;;4.76;100.00
68594;BME280;55563;52.416;13.548;2023-11-21T08:12:02;100930.19;;;4.76;100.00
68594;BME280;55563;52.416;13.548;2023-11-21T08:14:03;100927.75;;;4.81;100.00
68594;BME280;55563;52.416;13.548;2023-11-21T08:16:05;100938.59;;;4.78;100.00
68594;BME280;55563;52.416;13.548;2023-11-21T08:18:07;100937.44;;;4.74;100.00
68594;BME280;55563;52.416;13.548;2023-11-21T08:20:08;100935.16;;;4.84;100.00
68594;BME280;55563;52.416;13.548;2023-11-21T08:22:11;100944.00;;;4.76;100.00
68594;BME280;55563;52.416;13.548;2023-11-21T08:24:12;100942.97;;;4.84;100.00
68594;BME280;55563;52.416;13.548;2023-11-21T08:26:15;100940.41;;;4.77;100.00
68594;BME280;55563;52.416;13.548;2023-11-21T08:28:16;100943.38;;;4.81;100.00
68594;BME280;55563;52.416;13.548;2023-11-21T08:30:17;100945.34;;;4.86;100.00
68594;BME280;55563;52.416;13.548;2023-11-21T08:32:19;100948.84;;;4.73;100.00
68594;BME280;55563;52.416;13.548;2023-11-21T08:34:20;100944.59;;;4.78;100.00
68594;BME280;55563;52.416;13.548;2023-11-21T08:36:22;100949.22;;;4.76;100.00
68594;BME280;55563;52.416;13.548;2023-11-21T08:38:24;100946.97;;;4.80;100.00
68594;BME280;55563;52.416;13.548;2023-11-21T08:40:25;100946.34;;;4.84;100.00
68594;BME280;55563;52.416;13.548;2023-11-21T08:42:26;100961.59;;;4.81;100.00
68594;BME280;55563;52.416;13.548;2023-11-21T08:44:30;100951.44;;;4.73;100.00
68594;BME280;55563;52.416;13.548;2023-11-21T08:46:30;100956.47;;;4.74;100.00
68594;BME280;55563;52.416;13.548;2023-11-21T08:48:31;100962.44;;;4.75;100.00
68594;BME280;55563;52.416;13.548;2023-11-21T08:50:32;100962.91;;;4.65;100.00
68594;BME280;55563;52.416;13.548;2023-11-21T08:52:34;100969.31;;;4.69;100.00
68594;BME280;55563;52.416;13.548;2023-11-21T08:54:34;100969.88;;;4.71;100.00
68594;BME280;55563;52.416;13.548;2023-11-21T08:56:35;100977.59;;;4.60;100.00
68594;BME280;55563;52.416;13.548;2023-11-21T08:58:35;100975.38;;;4.57;100.00
68594;BME280;55563;52.416;13.548;2023-11-21T09:00:39;100977.97;;;4.57;100.00
68594;BME280;55563;52.416;13.548;2023-11-21T09:02:40;100981.19;;;4.59;100.00
68594;BME280;55563;52.416;13.548;2023-11-21T09:04:42;100982.97;;;4.65;100.00
68594;BME280;55563;52.416;13.548;2023-11-21T09:06:43;100986.94;;;4.67;100.00
68594;BME280;55563;52.416;13.548;2023-11-21T09:08:44;100994.41;;;4.57;100.00
68594;BME280;55563;52.416;13.548;2023-11-21T09:10:44;100994.00;;;4.60;100.00
68594;BME280;55563;52.416;13.548;2023-11-21T09:12:47;100998.56;;;4.65;100.00
68594;BME280;55563;52.416;13.548;2023-11-21T09:14:48;101003.09;;;4.76;100.00
68594;BME280;55563;52.416;13.548;2023-11-21T09:16:51;101003.25;;;4.81;100.00
68594;BME280;55563;52.416;13.548;2023-11-21T09:18:51;101013.09;;;4.79;100.00
68594;BME280;55563;52.416;13.548;2023-11-21T09:20:52;101015.13;;;4.70;100.00
68594;BME280;55563;52.416;13.548;2023-11-21T09:22:53;101016.38;;;4.68;100.00
68594;BME280;55563;52.416;13.548;2023-11-21T09:24:54;101023.13;;;4.75;100.00
68594;BME280;55563;52.416;13.548;2023-11-21T09:26:56;101021.75;;;4.73;100.00
68594;BME280;55563;52.416;13.548;2023-11-21T09:28:57;101030.53;;;4.78;100.00
68594;BME280;55563;52.416;13.548;2023-11-21T09:30:58;101024.16;;;4.74;100.00
68594;BME280;55563;52.416;13.548;2023-11-21T09:32:59;101027.78;;;4.67;100.00
68594;BME280;55563;52.416;13.548;2023-11-21T09:35:00;101026.63;;;4.63;100.00
68594;BME280;55563;52.416;13.548;2023-11-21T09:37:02;101035.03;;;4.65;100.00
68594;BME280;55563;52.416;13.548;2023-11-21T09:39:06;101036.31;;;4.49;100.00
68594;BME280;55563;52.416;13.548;2023-11-21T09:41:19;101036.09;;;4.51;100.00
68594;BME280;55563;52.416;13.548;2023-11-21T09:43:21;101045.63;;;4.63;100.00
68594;BME280;55563;52.416;13.548;2023-11-21T09:45:29;101055.25;;;4.63;100.00
68594;BME280;55563;52.416;13.548;2023-11-21T09:47:37;101046.97;;;4.72;100.00
68594;BME280;55563;52.416;13.548;2023-11-21T09:49:39;101045.59;;;4.70;100.00
68594;BME280;55563;52.416;13.548;2023-11-21T09:51:43;101055.69;;;4.60;100.00
68594;BME280;55563;52.416;13.548;2023-11-21T09:53:44;101050.06;;;4.56;100.00
68594;BME280;55563;52.416;13.548;2023-11-21T09:55:48;101050.88;;;4.57;100.00
68594;BME280;55563;52.416;13.548;2023-11-21T09:57:50;101055.28;;;4.56;100.00
68594;BME280;55563;52.416;13.548;2023-11-21T09:59:52;101050.75;;;4.45;100.00
68594;BME280;55563;52.416;13.548;2023-11-21T10:01:59;101059.31;;;4.52;100.00
68594;BME280;55563;52.416;13.548;2023-11-21T10:04:00;101062.06;;;4.57;100.00
68594;BME280;55563;52.416;13.548;2023-11-21T10:06:01;101067.16;;;4.46;100.00
68594;BME280;55563;52.416;13.548;2023-11-21T10:08:07;101064.31;;;4.47;100.00
68594;BME280;55563;52.416;13.548;2023-11-21T10:10:08;101065.31;;;4.53;100.00
68594;BME280;55563;52.416;13.548;2023-11-21T10:12:15;101067.72;;;4.48;100.00
68594;BME280;55563;52.416;13.548;2023-11-21T10:14:17;101070.06;;;4.62;100.00
68594;BME280;55563;52.416;13.548;2023-11-21T10:16:20;101065.03;;;4.67;100.00
68594;BME280;55563;52.416;13.548;2023-11-21T10:18:22;101060.19;;;4.71;100.00
68594;BME280;55563;52.416;13.548;2023-11-21T10:20:25;101062.78;;;4.77;100.00
68594;BME280;55563;52.416;13.548;2023-11-21T10:22:26;101063.59;;;4.71;100.00
68594;BME280;55563;52.416;13.548;2023-11-21T10:24:27;101070.38;;;4.79;100.00
68594;BME280;55563;52.416;13.548;2023-11-21T10:26:28;101060.19;;;4.71;100.00
68594;BME280;55563;52.416;13.548;2023-11-21T10:28:29;101057.47;;;4.59;100.00